Time;durP1;ratioP1;P1;durP2;ratioP2;P2;SDS_P1;SDS_P2;PMS_P1;PMS_P2;Temp;Humidity;BMP_temperature;BMP_pressure;BME280_temperature;BME280_humidity;BME280_pressure;Samples;Min_cycle;Max_cycle;Signal;HPM_P1;HPM_P2
2022/03/16 00:02:03;;;;;;;11.02;6.03;;;;;;;;;;5065324;28;20048;-66
2022/03/16 00:04:29;;;;;;;9.52;6.00;;;;;;;;;;5065639;28;20135;-66
2022/03/16 00:06:55;;;;;;;9.30;5.72;;;;;;;;;;5064412;28;20044;-66
2022/03/16 00:09:21;;;;;;;10.63;6.28;;;;;;;;;;5065698;28;20080;-66
2022/03/16 00:11:47;;;;;;;9.50;6.00;;;;;;;;;;5063898;28;20048;-66
2022/03/16 00:14:13;;;;;;;10.15;6.03;;;;;;;;;;5065433;28;20048;-66
2022/03/16 00:16:39;;;;;;;11.77;6.80;;;;;;;;;;5063160;28;20091;-66
2022/03/16 00:19:05;;;;;;;9.52;5.63;;;;;;;;;;5065396;28;20091;-66
2022/03/16 00:21:31;;;;;;;9.05;5.50;;;;;;;;;;5064577;28;20082;-65
2022/03/16 00:23:57;;;;;;;9.10;5.47;;;;;;;;;;5064989;28;20044;-65
2022/03/16 00:26:23;;;;;;;9.43;5.95;;;;;;;;;;5060708;28;20549;-66
2022/03/16 00:28:49;;;;;;;9.43;5.63;;;;;;;;;;5045093;28;20701;-65
2022/03/16 00:31:15;;;;;;;9.02;5.72;;;;;;;;;;5028550;28;20218;-66
2022/03/16 00:33:41;;;;;;;7.63;4.97;;;;;;;;;;5066337;28;20125;-65
2022/03/16 00:36:07;;;;;;;8.40;5.38;;;;;;;;;;5064373;28;20071;-65
2022/03/16 00:38:33;;;;;;;7.85;4.95;;;;;;;;;;5065536;28;20693;-65
2022/03/16 00:40:59;;;;;;;8.32;5.00;;;;;;;;;;5064748;28;20041;-65
2022/03/16 00:43:25;;;;;;;9.43;5.65;;;;;;;;;;5064990;28;20044;-65
2022/03/16 00:45:51;;;;;;;8.73;5.30;;;;;;;;;;5065563;28;20074;-66
2022/03/16 00:48:17;;;;;;;9.25;5.30;;;;;;;;;;5063150;28;20047;-66
2022/03/16 00:50:43;;;;;;;8.85;4.97;;;;;;;;;;5064717;28;20036;-66
2022/03/16 00:53:09;;;;;;;8.95;5.72;;;;;;;;;;5063939;28;20037;-66
2022/03/16 00:55:35;;;;;;;8.30;5.13;;;;;;;;;;5048599;28;20040;-66
2022/03/16 00:58:02;;;;;;;7.30;4.45;;;;;;;;;;5048060;28;20041;-65
2022/03/16 01:00:28;;;;;;;9.30;5.00;;;;;;;;;;5065344;28;20237;-66
2022/03/16 01:02:55;;;;;;;8.20;4.78;;;;;;;;;;5063871;28;20664;-65
2022/03/16 01:05:21;;;;;;;7.85;4.78;;;;;;;;;;5048587;28;20040;-65
2022/03/16 01:07:47;;;;;;;8.55;4.57;;;;;;;;;;5063812;28;20142;-66
2022/03/16 01:10:14;;;;;;;7.55;4.75;;;;;;;;;;5066737;28;20041;-66
2022/03/16 01:12:40;;;;;;;7.30;4.47;;;;;;;;;;5050127;28;20118;-65
2022/03/16 01:15:06;;;;;;;8.05;4.90;;;;;;;;;;5046036;28;20036;-65
2022/03/16 01:17:32;;;;;;;8.15;4.70;;;;;;;;;;5055489;28;20123;-66
2022/03/16 01:19:58;;;;;;;9.77;5.63;;;;;;;;;;5066453;28;20120;-65
2022/03/16 01:22:24;;;;;;;9.35;5.70;;;;;;;;;;5046862;28;20040;-66
2022/03/16 01:24:50;;;;;;;9.13;5.22;;;;;;;;;;5064773;28;20539;-65
2022/03/16 01:27:16;;;;;;;7.72;4.47;;;;;;;;;;5063551;28;20048;-66
2022/03/16 01:29:42;;;;;;;8.75;4.97;;;;;;;;;;5064554;28;20137;-66
2022/03/16 01:32:08;;;;;;;8.48;5.32;;;;;;;;;;5062597;28;20425;-66
2022/03/16 01:34:35;;;;;;;9.65;6.20;;;;;;;;;;5064561;28;20036;-65
2022/03/16 01:37:03;;;;;;;8.85;5.45;;;;;;;;;;5064335;28;20048;-66
2022/03/16 01:39:29;;;;;;;9.38;5.80;;;;;;;;;;5064380;28;20123;-66
2022/03/16 01:41:55;;;;;;;7.60;4.95;;;;;;;;;;5063081;28;20190;-66
2022/03/16 01:44:41;;;;;;;8.40;5.53;;;;;;;;;;5064419;28;20123;-66
2022/03/16 01:47:07;;;;;;;8.57;5.45;;;;;;;;;;5046517;28;20040;-66
2022/03/16 01:49:33;;;;;;;10.20;5.95;;;;;;;;;;5064328;28;20040;-65
2022/03/16 01:51:59;;;;;;;9.27;5.43;;;;;;;;;;5062797;28;20040;-66
2022/03/16 01:54:26;;;;;;;8.55;5.57;;;;;;;;;;5063809;28;20055;-66
2022/03/16 01:56:52;;;;;;;7.88;4.68;;;;;;;;;;5061075;28;20605;-65
2022/03/16 01:59:18;;;;;;;8.40;4.85;;;;;;;;;;5062062;28;20044;-65
2022/03/16 02:01:44;;;;;;;7.97;4.50;;;;;;;;;;5060597;28;20552;-66
2022/03/16 02:04:10;;;;;;;8.93;5.07;;;;;;;;;;5062103;28;20067;-66
2022/03/16 02:06:36;;;;;;;7.97;4.88;;;;;;;;;;5044439;28;20043;-66
2022/03/16 02:09:02;;;;;;;8.63;4.93;;;;;;;;;;5063260;28;20051;-66
2022/03/16 02:11:28;;;;;;;8.38;4.80;;;;;;;;;;5041025;28;20610;-66
2022/03/16 02:13:54;;;;;;;8.15;4.60;;;;;;;;;;5042752;28;20046;-66
2022/03/16 02:16:20;;;;;;;8.48;4.65;;;;;;;;;;5043247;28;20041;-66
2022/03/16 02:18:46;;;;;;;6.80;4.00;;;;;;;;;;5062185;28;20072;-66
2022/03/16 02:21:13;;;;;;;7.63;4.38;;;;;;;;;;5044449;28;20557;-66
2022/03/16 02:23:39;;;;;;;7.50;4.45;;;;;;;;;;5065284;28;20044;-66
2022/03/16 02:26:06;;;;;;;7.15;4.10;;;;;;;;;;5062269;28;20049;-66
2022/03/16 02:28:32;;;;;;;7.18;4.30;;;;;;;;;;5063187;28;20106;-66
2022/03/16 02:30:59;;;;;;;7.07;3.78;;;;;;;;;;5064154;28;20152;-66
2022/03/16 02:33:25;;;;;;;8.63;4.15;;;;;;;;;;5062359;28;20076;-66
2022/03/16 02:35:51;;;;;;;7.60;3.90;;;;;;;;;;5062678;28;20036;-66
2022/03/16 02:38:18;;;;;;;6.22;3.63;;;;;;;;;;5062045;28;20047;-66
2022/03/16 02:40:44;;;;;;;6.80;4.00;;;;;;;;;;5063478;28;20041;-66
2022/03/16 02:43:10;;;;;;;7.25;4.07;;;;;;;;;;5062396;28;20702;-66
2022/03/16 02:45:36;;;;;;;7.38;3.50;;;;;;;;;;5063193;28;20052;-66
2022/03/16 02:48:02;;;;;;;7.18;3.50;;;;;;;;;;5061489;28;20052;-66
2022/03/16 02:50:28;;;;;;;5.88;3.30;;;;;;;;;;5063975;28;20039;-66
2022/03/16 02:52:54;;;;;;;6.35;3.50;;;;;;;;;;5050485;28;20049;-66
2022/03/16 02:55:20;;;;;;;6.47;3.22;;;;;;;;;;5009788;28;20040;-66
2022/03/16 02:57:46;;;;;;;6.38;3.17;;;;;;;;;;5037316;28;20537;-66
2022/03/16 03:00:14;;;;;;;7.05;3.90;;;;;;;;;;5044643;28;20082;-66
2022/03/16 03:02:41;;;;;;;6.63;3.88;;;;;;;;;;5041720;28;20040;-66
2022/03/16 03:05:07;;;;;;;6.88;3.83;;;;;;;;;;5025685;28;20173;-65
2022/03/16 03:07:33;;;;;;;6.05;3.33;;;;;;;;;;5055049;28;20044;-65
2022/03/16 03:09:59;;;;;;;6.40;3.55;;;;;;;;;;5063025;28;20056;-66
2022/03/16 03:12:25;;;;;;;6.65;3.80;;;;;;;;;;5045113;28;20157;-66
2022/03/16 03:14:51;;;;;;;6.38;3.42;;;;;;;;;;5063015;28;20146;-66
2022/03/16 03:17:17;;;;;;;6.75;3.80;;;;;;;;;;5060930;28;20530;-66
2022/03/16 03:19:48;;;;;;;6.63;3.80;;;;;;;;;;5053715;28;20052;-66
2022/03/16 03:22:14;;;;;;;7.13;3.90;;;;;;;;;;5036410;28;20540;-66
2022/03/16 03:24:40;;;;;;;8.13;4.13;;;;;;;;;;5064124;28;20040;-65
2022/03/16 03:27:06;;;;;;;6.38;3.33;;;;;;;;;;5061432;28;20055;-66
2022/03/16 03:29:32;;;;;;;7.40;4.43;;;;;;;;;;5067295;28;20041;-65
2022/03/16 03:31:58;;;;;;;7.10;3.80;;;;;;;;;;5066840;28;20076;-66
2022/03/16 03:34:24;;;;;;;7.57;3.88;;;;;;;;;;5066482;28;20477;-66
2022/03/16 03:36:50;;;;;;;6.32;3.55;;;;;;;;;;5066694;28;20047;-65
2022/03/16 03:39:16;;;;;;;9.70;4.47;;;;;;;;;;5067040;28;20072;-66
2022/03/16 03:41:43;;;;;;;6.18;3.65;;;;;;;;;;5065859;28;20486;-66
2022/03/16 03:44:09;;;;;;;6.22;3.55;;;;;;;;;;5066957;28;20056;-66
2022/03/16 03:46:35;;;;;;;6.65;3.90;;;;;;;;;;5064816;28;20094;-65
2022/03/16 03:49:01;;;;;;;7.43;4.00;;;;;;;;;;5066694;28;20048;-66
2022/03/16 03:51:27;;;;;;;7.43;3.95;;;;;;;;;;5065223;28;20521;-65
2022/03/16 03:53:53;;;;;;;6.05;3.45;;;;;;;;;;5066788;28;20076;-65
2022/03/16 03:56:19;;;;;;;6.50;3.75;;;;;;;;;;5065673;28;20079;-65
2022/03/16 03:58:45;;;;;;;6.50;3.60;;;;;;;;;;5066428;28;20044;-66
2022/03/16 04:01:11;;;;;;;6.63;3.70;;;;;;;;;;5065197;28;20098;-65
2022/03/16 04:03:37;;;;;;;6.25;3.78;;;;;;;;;;5066837;28;20040;-65
2022/03/16 04:06:03;;;;;;;6.32;3.53;;;;;;;;;;5064810;28;20051;-65
2022/03/16 04:08:29;;;;;;;6.97;3.40;;;;;;;;;;5066564;28;20143;-66
2022/03/16 04:10:55;;;;;;;6.30;3.00;;;;;;;;;;5066049;28;20048;-65
2022/03/16 04:13:21;;;;;;;6.60;3.25;;;;;;;;;;5065915;28;20048;-65
2022/03/16 04:15:47;;;;;;;5.25;3.10;;;;;;;;;;5049700;28;20093;-66
2022/03/16 04:18:13;;;;;;;6.43;3.55;;;;;;;;;;5064322;28;20032;-65
2022/03/16 04:20:39;;;;;;;6.55;3.17;;;;;;;;;;5065917;28;20041;-65
2022/03/16 04:23:05;;;;;;;6.40;3.80;;;;;;;;;;5064414;28;20580;-65
2022/03/16 04:25:31;;;;;;;6.70;3.90;;;;;;;;;;5067276;28;20044;-65
2022/03/16 04:27:57;;;;;;;6.03;3.10;;;;;;;;;;5063457;28;20132;-66
2022/03/16 04:30:23;;;;;;;6.25;3.53;;;;;;;;;;5059154;28;20060;-65
2022/03/16 04:32:51;;;;;;;6.43;3.50;;;;;;;;;;5028265;28;20140;-65
2022/03/16 04:35:18;;;;;;;5.85;3.30;;;;;;;;;;5038584;28;20558;-65
2022/03/16 04:37:44;;;;;;;6.88;3.53;;;;;;;;;;5058865;28;20171;-66
2022/03/16 04:40:11;;;;;;;6.25;3.55;;;;;;;;;;5064003;28;20044;-66
2022/03/16 04:42:36;;;;;;;6.30;3.60;;;;;;;;;;5063880;28;20044;-66
2022/03/16 04:45:03;;;;;;;6.32;3.35;;;;;;;;;;5064530;28;20135;-65
2022/03/16 04:47:29;;;;;;;6.60;4.15;;;;;;;;;;5063139;28;20139;-65
2022/03/16 04:49:55;;;;;;;7.25;4.00;;;;;;;;;;5065681;28;20132;-65
2022/03/16 04:52:20;;;;;;;7.03;3.80;;;;;;;;;;5062796;28;20463;-66
2022/03/16 04:54:46;;;;;;;7.25;4.00;;;;;;;;;;5064243;28;20068;-65
2022/03/16 04:57:12;;;;;;;7.32;4.00;;;;;;;;;;5062987;28;20040;-65
2022/03/16 04:59:38;;;;;;;7.47;4.72;;;;;;;;;;5064301;28;20646;-66
2022/03/16 05:02:05;;;;;;;7.93;3.70;;;;;;;;;;5062334;28;20067;-65
2022/03/16 05:04:31;;;;;;;6.53;3.75;;;;;;;;;;5063849;28;20041;-65
2022/03/16 05:06:57;;;;;;;6.32;3.75;;;;;;;;;;5063471;28;20498;-65
2022/03/16 05:09:23;;;;;;;5.60;3.15;;;;;;;;;;5064495;28;20049;-65
2022/03/16 05:11:49;;;;;;;6.57;4.00;;;;;;;;;;5062531;28;20055;-65
2022/03/16 05:14:15;;;;;;;7.13;3.63;;;;;;;;;;5063958;28;20413;-65
2022/03/16 05:16:41;;;;;;;7.38;3.90;;;;;;;;;;5061503;28;20048;-65
2022/03/16 05:19:07;;;;;;;6.88;3.65;;;;;;;;;;5063767;28;20047;-65
2022/03/16 05:21:33;;;;;;;6.03;3.38;;;;;;;;;;5061913;28;20139;-65
2022/03/16 05:23:59;;;;;;;5.80;3.55;;;;;;;;;;5064455;28;20123;-65
2022/03/16 05:26:25;;;;;;;5.70;3.40;;;;;;;;;;5025252;28;1046524;-65
2022/03/16 05:28:52;;;;;;;5.95;3.35;;;;;;;;;;5064727;28;20125;-65
2022/03/16 05:31:19;;;;;;;6.28;3.70;;;;;;;;;;5062744;28;20107;-65
2022/03/16 05:33:45;;;;;;;6.07;3.38;;;;;;;;;;5064642;28;20043;-65
2022/03/16 05:36:11;;;;;;;5.75;3.10;;;;;;;;;;5047146;28;20052;-65
2022/03/16 05:38:37;;;;;;;5.80;3.20;;;;;;;;;;5064423;28;20098;-66
2022/03/16 05:41:03;;;;;;;6.38;3.70;;;;;;;;;;5063200;28;20620;-65
2022/03/16 05:43:29;;;;;;;5.53;3.17;;;;;;;;;;5064478;28;20083;-65
2022/03/16 05:45:55;;;;;;;5.90;3.17;;;;;;;;;;5050810;28;20080;-65
2022/03/16 05:48:21;;;;;;;5.75;3.40;;;;;;;;;;5025543;28;20048;-65
2022/03/16 05:50:47;;;;;;;6.47;3.38;;;;;;;;;;5023827;28;20037;-66
2022/03/16 05:53:14;;;;;;;6.43;3.80;;;;;;;;;;5044410;28;20033;-66
2022/03/16 05:55:40;;;;;;;6.30;3.28;;;;;;;;;;5043997;28;20679;-65
2022/03/16 05:58:06;;;;;;;6.93;3.58;;;;;;;;;;5028937;28;20459;-66
2022/03/16 06:00:32;;;;;;;6.28;3.20;;;;;;;;;;5048069;28;20355;-66
2022/03/16 06:02:58;;;;;;;5.82;3.42;;;;;;;;;;5063138;28;20041;-65
2022/03/16 06:05:25;;;;;;;5.88;3.33;;;;;;;;;;5055491;28;20486;-65
2022/03/16 06:07:51;;;;;;;5.55;3.30;;;;;;;;;;5053672;28;20120;-66
2022/03/16 06:10:18;;;;;;;6.68;3.55;;;;;;;;;;5045948;28;20132;-65
2022/03/16 06:12:54;;;;;;;6.07;3.30;;;;;;;;;;5040888;28;20052;-65
2022/03/16 06:15:20;;;;;;;5.30;2.88;;;;;;;;;;5063739;28;20094;-66
2022/03/16 06:17:46;;;;;;;5.47;2.88;;;;;;;;;;5045748;28;20048;-65
2022/03/16 06:20:12;;;;;;;5.50;3.10;;;;;;;;;;5063916;28;20672;-65
2022/03/16 06:22:38;;;;;;;6.68;3.25;;;;;;;;;;5062346;28;20077;-65
2022/03/16 06:25:04;;;;;;;5.55;3.25;;;;;;;;;;5063501;28;20397;-66
2022/03/16 06:27:30;;;;;;;6.35;3.55;;;;;;;;;;5045894;28;20060;-65
2022/03/16 06:29:56;;;;;;;6.78;3.78;;;;;;;;;;5064938;28;20041;-65
2022/03/16 06:32:22;;;;;;;5.55;3.30;;;;;;;;;;5061070;28;20063;-65
2022/03/16 06:34:48;;;;;;;5.95;3.28;;;;;;;;;;5063957;28;20047;-65
2022/03/16 06:37:14;;;;;;;5.30;3.00;;;;;;;;;;5052082;28;20044;-65
2022/03/16 06:39:41;;;;;;;6.70;3.80;;;;;;;;;;5044887;28;20118;-65
2022/03/16 06:42:07;;;;;;;6.68;3.63;;;;;;;;;;5052161;28;20051;-65
2022/03/16 06:44:34;;;;;;;6.38;3.83;;;;;;;;;;5063520;28;20071;-65
2022/03/16 06:47:00;;;;;;;6.25;3.70;;;;;;;;;;5061396;28;20048;-65
2022/03/16 06:49:26;;;;;;;6.20;3.72;;;;;;;;;;5063119;28;20049;-65
2022/03/16 06:51:52;;;;;;;6.88;3.83;;;;;;;;;;5041775;28;20494;-65
2022/03/16 06:54:19;;;;;;;6.90;3.28;;;;;;;;;;5036574;28;20040;-65
2022/03/16 06:56:45;;;;;;;6.97;4.00;;;;;;;;;;5025379;28;20049;-65
2022/03/16 06:59:11;;;;;;;14.25;9.38;;;;;;;;;;5042160;28;20090;-65
2022/03/16 07:01:37;;;;;;;9.57;5.75;;;;;;;;;;5046108;28;20052;-65
2022/03/16 07:04:03;;;;;;;11.73;7.28;;;;;;;;;;5045882;28;20055;-66
2022/03/16 07:06:29;;;;;;;11.05;7.15;;;;;;;;;;5044495;28;20071;-65
2022/03/16 07:08:55;;;;;;;12.65;8.35;;;;;;;;;;5046135;28;20586;-66
2022/03/16 07:11:21;;;;;;;11.65;8.18;;;;;;;;;;5061878;28;20041;-65
2022/03/16 07:14:30;;;;;;;13.38;8.20;;;;;;;;;;5064516;28;20549;-65
2022/03/16 07:16:34;;;;;;;11.80;8.32;;;;;;;;;;5061242;28;20037;-65
2022/03/16 07:19:00;;;;;;;12.85;8.52;;;;;;;;;;5061879;28;20051;-66
2022/03/16 07:21:26;;;;;;;12.40;8.02;;;;;;;;;;5061321;28;20121;-65
2022/03/16 07:23:52;;;;;;;14.55;8.40;;;;;;;;;;5062982;28;20127;-65
2022/03/16 07:26:18;;;;;;;11.68;7.55;;;;;;;;;;5042833;28;20129;-65
2022/03/16 07:28:44;;;;;;;11.07;7.38;;;;;;;;;;5025751;28;21823;-65
2022/03/16 07:31:10;;;;;;;12.75;7.63;;;;;;;;;;5042116;28;20053;-65
2022/03/16 07:33:37;;;;;;;12.75;7.22;;;;;;;;;;5052781;28;20152;-65
2022/03/16 07:36:04;;;;;;;10.55;7.20;;;;;;;;;;5045592;28;20493;-65
2022/03/16 07:38:30;;;;;;;11.82;8.13;;;;;;;;;;5037510;28;20062;-65
2022/03/16 07:40:56;;;;;;;12.88;7.97;;;;;;;;;;5052310;28;20072;-65
2022/03/16 07:43:22;;;;;;;11.68;7.60;;;;;;;;;;5061483;28;20666;-65
2022/03/16 07:45:48;;;;;;;11.02;7.28;;;;;;;;;;5062597;28;20094;-65
2022/03/16 07:48:14;;;;;;;10.93;7.15;;;;;;;;;;5061195;28;20073;-65
2022/03/16 07:50:40;;;;;;;13.50;8.25;;;;;;;;;;5062789;28;20083;-65
2022/03/16 07:53:06;;;;;;;11.73;8.02;;;;;;;;;;5061075;28;20040;-65
2022/03/16 07:55:33;;;;;;;13.00;7.95;;;;;;;;;;5062704;28;20052;-65
2022/03/16 07:57:59;;;;;;;11.35;7.57;;;;;;;;;;5060730;28;20123;-65
2022/03/16 08:00:25;;;;;;;10.65;7.63;;;;;;;;;;5046097;28;20066;-65
2022/03/16 08:02:55;;;;;;;11.38;7.75;;;;;;;;;;5060157;28;20132;-66
2022/03/16 08:05:21;;;;;;;11.90;7.50;;;;;;;;;;5045624;28;20043;-65
2022/03/16 08:07:48;;;;;;;11.23;7.53;;;;;;;;;;5060828;28;20048;-65
2022/03/16 08:10:14;;;;;;;11.85;8.18;;;;;;;;;;5062097;28;20107;-65
2022/03/16 08:12:40;;;;;;;11.65;7.68;;;;;;;;;;5060925;28;20088;-65
2022/03/16 08:15:06;;;;;;;11.93;7.55;;;;;;;;;;5064055;28;20587;-65
2022/03/16 08:17:32;;;;;;;10.60;7.47;;;;;;;;;;5063324;28;20660;-66
2022/03/16 08:19:58;;;;;;;11.20;6.45;;;;;;;;;;5066365;28;20700;-66
2022/03/16 08:22:25;;;;;;;11.02;6.63;;;;;;;;;;5064777;28;20180;-66
2022/03/16 08:24:52;;;;;;;13.20;5.13;;;;;;;;;;5067524;28;20116;-67
2022/03/16 08:27:18;;;;;;;12.50;5.75;;;;;;;;;;5065557;28;20059;-66
2022/03/16 08:29:44;;;;;;;12.07;5.80;;;;;;;;;;5065720;28;20048;-66
2022/03/16 08:32:10;;;;;;;11.43;5.72;;;;;;;;;;5065082;28;20044;-66
2022/03/16 08:34:36;;;;;;;11.05;6.13;;;;;;;;;;5067660;28;20064;-66
2022/03/16 08:37:02;;;;;;;12.40;5.75;;;;;;;;;;5064713;28;20048;-66
2022/03/16 08:39:29;;;;;;;10.38;6.32;;;;;;;;;;5065620;28;20075;-67
2022/03/16 08:41:55;;;;;;;9.88;5.57;;;;;;;;;;5064699;28;20047;-66
2022/03/16 08:44:23;;;;;;;8.60;5.30;;;;;;;;;;5066548;28;20044;-66
2022/03/16 08:46:50;;;;;;;13.77;6.68;;;;;;;;;;5047532;28;20505;-66
2022/03/16 08:49:16;;;;;;;9.80;5.90;;;;;;;;;;5065708;28;20050;-66
2022/03/16 08:51:42;;;;;;;8.88;4.80;;;;;;;;;;5064285;28;20048;-66
2022/03/16 08:54:08;;;;;;;9.13;4.82;;;;;;;;;;5065484;28;20723;-66
2022/03/16 08:56:35;;;;;;;10.45;4.68;;;;;;;;;;5063686;28;20072;-66
2022/03/16 08:59:01;;;;;;;9.10;4.95;;;;;;;;;;5065230;28;20097;-67
2022/03/16 09:01:27;;;;;;;10.18;4.60;;;;;;;;;;5063686;28;20052;-66
2022/03/16 09:03:53;;;;;;;10.85;4.40;;;;;;;;;;5065009;28;20123;-66
2022/03/16 09:06:19;;;;;;;12.30;5.63;;;;;;;;;;5063683;28;20171;-66
2022/03/16 09:08:46;;;;;;;9.82;4.72;;;;;;;;;;5048274;28;20052;-66
2022/03/16 09:11:12;;;;;;;7.60;4.03;;;;;;;;;;5063613;28;20045;-66
2022/03/16 09:13:39;;;;;;;10.10;5.15;;;;;;;;;;5066060;28;20037;-66
2022/03/16 09:16:06;;;;;;;10.70;4.55;;;;;;;;;;5047078;28;20036;-66
2022/03/16 09:18:33;;;;;;;10.77;4.30;;;;;;;;;;5047890;28;20037;-66
2022/03/16 09:21:00;;;;;;;9.88;4.53;;;;;;;;;;5047462;28;20082;-66
2022/03/16 09:23:31;;;;;;;11.98;6.10;;;;;;;;;;5044861;28;20405;-66
2022/03/16 09:25:57;;;;;;;12.55;5.25;;;;;;;;;;5043758;28;20075;-66
2022/03/16 09:28:23;;;;;;;11.52;5.55;;;;;;;;;;5063230;28;20641;-66
2022/03/16 09:30:49;;;;;;;14.60;5.82;;;;;;;;;;5065219;28;20048;-66
2022/03/16 09:33:15;;;;;;;11.63;5.03;;;;;;;;;;5062276;28;20470;-66
2022/03/16 09:35:42;;;;;;;12.30;4.97;;;;;;;;;;5064710;28;20073;-66
2022/03/16 09:38:08;;;;;;;11.60;5.70;;;;;;;;;;5063105;28;20532;-66
2022/03/16 09:40:36;;;;;;;12.23;5.88;;;;;;;;;;5066139;28;20037;-66
2022/03/16 09:43:06;;;;;;;10.77;6.07;;;;;;;;;;5046110;28;20071;-68
2022/03/16 09:45:36;;;;;;;10.48;5.97;;;;;;;;;;5064497;28;20050;-66
2022/03/16 09:48:02;;;;;;;9.88;5.25;;;;;;;;;;5046161;28;20047;-66
2022/03/16 09:50:28;;;;;;;12.35;5.43;;;;;;;;;;5044684;28;20565;-66
2022/03/16 09:52:56;;;;;;;9.05;5.53;;;;;;;;;;5059274;28;20037;-66
2022/03/16 09:55:22;;;;;;;11.30;5.90;;;;;;;;;;5064470;28;20048;-66
2022/03/16 09:57:47;;;;;;;12.75;6.50;;;;;;;;;;5046355;28;20156;-66
2022/03/16 10:00:14;;;;;;;10.60;5.78;;;;;;;;;;5048083;28;20629;-66
2022/03/16 10:02:40;;;;;;;11.25;5.47;;;;;;;;;;5045985;28;20139;-66
2022/03/16 10:05:10;;;;;;;12.90;4.88;;;;;;;;;;5065164;28;20433;-66
2022/03/16 10:07:37;;;;;;;12.07;5.20;;;;;;;;;;5049686;28;20048;-66
2022/03/16 10:15:34;;;;;;;;;;;;;;;;;;5066271;28;20048;-66
2022/03/16 10:18:04;;;;;;;9.65;5.35;;;;;;;;;;5045263;28;19927;-66
2022/03/16 10:20:34;;;;;;;18.70;5.50;;;;;;;;;;5063919;28;20051;-66
2022/03/16 10:23:03;;;;;;;11.93;5.32;;;;;;;;;;5062536;28;20489;-66
2022/03/16 10:25:31;;;;;;;10.77;5.78;;;;;;;;;;5063620;28;20040;-66
2022/03/16 10:28:10;;;;;;;13.55;5.40;;;;;;;;;;5062406;28;20506;-66
2022/03/16 10:30:36;;;;;;;11.25;4.50;;;;;;;;;;5047429;28;20103;-66
2022/03/16 10:33:02;;;;;;;12.05;4.70;;;;;;;;;;5061553;28;20044;-66
2022/03/16 10:35:28;;;;;;;15.07;4.63;;;;;;;;;;5062959;28;20548;-66
2022/03/16 10:38:06;;;;;;;14.77;4.25;;;;;;;;;;5062002;28;20040;-66
2022/03/16 10:40:32;;;;;;;13.88;4.40;;;;;;;;;;5064937;28;20043;-66
2022/03/16 10:48:28;;;;;;;12.18;4.25;;;;;;;;;;5042715;28;19916;-66
2022/03/16 10:50:58;;;;;;;14.40;4.47;;;;;;;;;;5042798;28;20775;-66
2022/03/16 10:53:28;;;;;;;20.77;4.90;;;;;;;;;;5062782;28;20051;-66
2022/03/16 10:55:56;;;;;;;13.63;4.18;;;;;;;;;;5063369;28;20101;-66
2022/03/16 10:58:23;;;;;;;15.30;4.22;;;;;;;;;;5062304;28;20101;-66
2022/03/16 11:00:51;;;;;;;9.80;3.95;;;;;;;;;;5062967;28;20044;-66
2022/03/16 11:03:22;;;;;;;14.18;4.20;;;;;;;;;;5060348;28;20062;-67
2022/03/16 11:05:49;;;;;;;12.05;4.50;;;;;;;;;;5046604;28;20037;-67
2022/03/16 11:08:15;;;;;;;12.10;4.50;;;;;;;;;;5062362;28;20032;-66
2022/03/16 11:10:42;;;;;;;13.10;3.90;;;;;;;;;;5063043;28;20044;-67
2022/03/16 11:15:54;;;;;;;12.45;4.03;;;;;;;;;;5062928;28;20082;-67
2022/03/16 11:18:21;;;;;;;12.13;4.07;;;;;;;;;;5061688;28;20036;-66
2022/03/16 11:20:48;;;;;;;10.20;3.60;;;;;;;;;;5063296;28;20154;-67
2022/03/16 11:26:16;;;;;;;14.57;4.03;;;;;;;;;;5062252;28;20044;-66
2022/03/16 11:28:51;;;;;;;13.73;4.10;;;;;;;;;;5062661;28;20061;-67
2022/03/16 11:31:23;;;;;;;10.82;4.00;;;;;;;;;;5041855;28;20049;-67
2022/03/16 11:33:52;;;;;;;13.18;3.80;;;;;;;;;;5043224;28;20560;-67
2022/03/16 11:36:49;;;;;;;17.60;4.18;;;;;;;;;;5044643;28;20041;-67
2022/03/16 11:39:15;;;;;;;15.93;4.70;;;;;;;;;;5054206;28;20057;-67
2022/03/16 11:41:47;;;;;;;8.43;3.70;;;;;;;;;;5062984;28;20045;-67
2022/03/16 11:44:25;;;;;;;16.15;4.47;;;;;;;;;;5062793;28;20044;-67
2022/03/16 11:46:52;;;;;;;11.77;4.68;;;;;;;;;;5061647;28;20037;-67
2022/03/16 11:49:29;;;;;;;18.17;4.60;;;;;;;;;;5063356;28;20087;-67
2022/03/16 11:52:02;;;;;;;14.57;4.70;;;;;;;;;;5065048;28;20045;-66
2022/03/16 11:54:41;;;;;;;10.52;4.15;;;;;;;;;;5065860;28;20567;-68
2022/03/16 11:57:07;;;;;;;14.05;4.47;;;;;;;;;;5064701;28;20040;-66
2022/03/16 11:59:34;;;;;;;10.43;4.45;;;;;;;;;;5066869;28;20631;-66
2022/03/16 12:02:05;;;;;;;11.50;4.55;;;;;;;;;;5056258;28;20051;-67
2022/03/16 12:04:36;;;;;;;11.05;4.30;;;;;;;;;;5030096;28;20045;-67
2022/03/16 12:07:09;;;;;;;12.27;4.55;;;;;;;;;;5053942;28;20157;-67
2022/03/16 12:09:38;;;;;;;13.60;4.40;;;;;;;;;;5067480;28;20045;-66
2022/03/16 12:15:04;;;;;;;12.25;4.85;;;;;;;;;;5070616;28;20044;-66
2022/03/16 12:17:30;;;;;;;15.60;4.75;;;;;;;;;;5068006;28;20545;-66
2022/03/16 12:20:15;;;;;;;10.07;4.80;;;;;;;;;;5053709;28;20389;-66
2022/03/16 12:22:44;;;;;;;9.75;5.32;;;;;;;;;;5065304;28;20052;-66
2022/03/16 12:25:26;;;;;;;13.02;5.07;;;;;;;;;;5067484;28;20052;-66
2022/03/16 12:30:50;;;;;;;8.93;5.30;;;;;;;;;;5066501;28;20045;-66
2022/03/16 12:33:22;;;;;;;11.85;5.13;;;;;;;;;;5048154;28;20041;-66
2022/03/16 12:36:11;;;;;;;10.20;5.05;;;;;;;;;;5065999;28;20076;-66
2022/03/16 12:38:39;;;;;;;11.55;4.97;;;;;;;;;;5066084;28;20041;-66
2022/03/16 12:43:53;;;;;;;11.25;5.30;;;;;;;;;;5065767;28;20432;-66
2022/03/16 12:46:25;;;;;;;10.40;5.15;;;;;;;;;;5061607;28;20053;-66
2022/03/16 12:48:55;;;;;;;11.60;5.40;;;;;;;;;;5045560;28;20067;-66
2022/03/16 12:51:34;;;;;;;10.02;5.20;;;;;;;;;;5047539;28;20052;-66
2022/03/16 12:54:00;;;;;;;10.15;5.93;;;;;;;;;;5065487;28;20040;-66
2022/03/16 12:56:26;;;;;;;11.55;5.43;;;;;;;;;;5064108;28;20047;-66
2022/03/16 12:58:52;;;;;;;8.10;5.20;;;;;;;;;;5065167;28;20028;-66
2022/03/16 13:01:19;;;;;;;15.00;6.18;;;;;;;;;;5062816;28;20080;-66
2022/03/16 13:03:45;;;;;;;11.80;5.25;;;;;;;;;;5064541;28;20743;-66
2022/03/16 13:06:17;;;;;;;10.65;5.57;;;;;;;;;;5063074;28;20403;-66
2022/03/16 13:08:46;;;;;;;10.07;5.28;;;;;;;;;;5048751;28;20041;-66
2022/03/16 13:11:19;;;;;;;10.35;5.80;;;;;;;;;;5064353;28;20055;-66
2022/03/16 13:13:48;;;;;;;11.32;5.88;;;;;;;;;;5064959;28;20083;-66
2022/03/16 13:16:56;;;;;;;11.35;5.68;;;;;;;;;;5063308;28;20068;-66
2022/03/16 13:19:25;;;;;;;9.20;5.85;;;;;;;;;;5026495;28;20143;-66
2022/03/16 13:22:06;;;;;;;11.13;5.80;;;;;;;;;;5050928;28;20055;-66
2022/03/16 13:24:35;;;;;;;10.05;5.45;;;;;;;;;;5045162;28;20045;-66
2022/03/16 13:27:03;;;;;;;9.90;6.00;;;;;;;;;;5052545;28;20505;-66
2022/03/16 13:29:29;;;;;;;10.60;5.72;;;;;;;;;;5048860;28;20502;-66
2022/03/16 13:31:56;;;;;;;9.32;5.63;;;;;;;;;;5063378;28;20079;-66
2022/03/16 13:34:23;;;;;;;9.80;5.13;;;;;;;;;;5048285;28;20086;-66
2022/03/16 13:36:51;;;;;;;9.43;5.72;;;;;;;;;;5047125;28;20512;-66
2022/03/16 13:39:26;;;;;;;10.25;5.55;;;;;;;;;;5064771;28;20040;-66
2022/03/16 13:42:05;;;;;;;10.23;5.68;;;;;;;;;;5047151;28;20041;-66
2022/03/16 13:44:34;;;;;;;9.00;5.18;;;;;;;;;;5064345;28;20433;-66
2022/03/16 13:47:00;;;;;;;10.27;6.00;;;;;;;;;;5046303;28;20071;-65
2022/03/16 13:49:34;;;;;;;10.55;5.10;;;;;;;;;;5063851;28;20082;-67
2022/03/16 13:52:02;;;;;;;10.25;5.82;;;;;;;;;;5062331;28;20102;-67
2022/03/16 13:54:28;;;;;;;10.23;5.28;;;;;;;;;;5065936;28;20047;-66
2022/03/16 13:56:55;;;;;;;9.45;5.18;;;;;;;;;;5063083;28;20494;-67
2022/03/16 13:59:21;;;;;;;9.02;5.35;;;;;;;;;;5065094;28;20045;-66
2022/03/16 14:01:48;;;;;;;10.13;5.35;;;;;;;;;;5061902;28;20127;-67
2022/03/16 14:04:19;;;;;;;9.55;5.80;;;;;;;;;;5063532;28;20044;-66
2022/03/16 14:06:47;;;;;;;9.23;5.22;;;;;;;;;;5063460;28;20131;-66
2022/03/16 14:09:13;;;;;;;13.00;5.63;;;;;;;;;;5064205;28;20533;-66
2022/03/16 14:11:39;;;;;;;9.70;5.63;;;;;;;;;;5046182;28;20048;-66
2022/03/16 14:14:12;;;;;;;9.65;5.55;;;;;;;;;;5063494;28;20049;-67
2022/03/16 14:16:40;;;;;;;9.98;6.15;;;;;;;;;;5062308;28;20111;-67
2022/03/16 14:19:24;;;;;;;12.18;5.63;;;;;;;;;;5064077;28;20068;-66
2022/03/16 14:21:50;;;;;;;12.30;6.20;;;;;;;;;;5062331;28;20079;-67
2022/03/16 14:24:16;;;;;;;9.68;5.93;;;;;;;;;;5063783;28;20451;-66
2022/03/16 14:26:42;;;;;;;10.57;5.80;;;;;;;;;;5046115;28;20105;-67
2022/03/16 14:29:08;;;;;;;11.65;6.03;;;;;;;;;;5063888;28;20059;-66
2022/03/16 14:31:34;;;;;;;10.75;6.82;;;;;;;;;;5045570;28;20148;-66
2022/03/16 14:34:00;;;;;;;11.13;6.40;;;;;;;;;;5063806;28;20044;-66
2022/03/16 14:36:29;;;;;;;10.23;5.82;;;;;;;;;;5062125;28;20046;-67
2022/03/16 14:38:56;;;;;;;10.07;6.10;;;;;;;;;;5064040;28;20040;-67
2022/03/16 14:41:23;;;;;;;9.35;6.32;;;;;;;;;;5046515;28;20040;-66
2022/03/16 14:43:49;;;;;;;10.45;6.43;;;;;;;;;;5063645;28;20076;-66
2022/03/16 14:46:15;;;;;;;10.88;6.40;;;;;;;;;;5061038;28;20071;-66
2022/03/16 14:48:41;;;;;;;11.60;6.15;;;;;;;;;;5063277;28;20526;-66
2022/03/16 14:51:07;;;;;;;11.27;6.50;;;;;;;;;;5045472;28;20040;-66
2022/03/16 14:53:33;;;;;;;10.48;6.10;;;;;;;;;;5063408;28;20051;-66
2022/03/16 14:55:59;;;;;;;11.27;6.82;;;;;;;;;;5063419;28;20053;-66
2022/03/16 14:58:25;;;;;;;10.10;6.60;;;;;;;;;;5062700;28;20044;-66
2022/03/16 15:00:51;;;;;;;10.35;6.45;;;;;;;;;;5063428;28;20513;-66
2022/03/16 15:03:18;;;;;;;12.07;6.75;;;;;;;;;;5061525;28;20044;-66
2022/03/16 15:05:44;;;;;;;10.57;7.00;;;;;;;;;;5062796;28;20119;-66